createdAt,value
2023-01-29T00:01:13.891Z,1.17
2023-01-29T00:03:43.145Z,1.45
2023-01-29T00:06:12.931Z,1.42
2023-01-29T00:08:42.430Z,1.52
2023-01-29T00:11:11.637Z,1.75
2023-01-29T00:13:41.054Z,1.30
2023-01-29T00:16:10.898Z,1.13
2023-01-29T00:18:41.550Z,1.48
2023-01-29T00:21:17.695Z,1.77
2023-01-29T00:23:46.999Z,1.90
2023-01-29T00:26:17.490Z,1.40
2023-01-29T00:28:50.456Z,1.80
2023-01-29T00:31:23.118Z,1.33
2023-01-29T00:33:52.578Z,1.70
2023-01-29T00:36:23.172Z,1.63
2023-01-29T00:39:02.499Z,1.42
2023-01-29T00:42:11.514Z,1.60
2023-01-29T00:44:59.171Z,1.83
2023-01-29T00:50:06.649Z,1.45
2023-01-29T00:52:36.934Z,2.10
2023-01-29T00:55:07.889Z,1.42
2023-01-29T00:57:38.284Z,1.42
2023-01-29T01:00:13.574Z,1.77
2023-01-29T01:03:02.039Z,1.23
2023-01-29T01:05:31.474Z,1.40
2023-01-29T01:08:00.697Z,1.75
2023-01-29T01:10:33.154Z,1.55
2023-01-29T01:13:06.903Z,1.25
2023-01-29T01:15:40.443Z,1.55
2023-01-29T01:18:09.728Z,1.75
2023-01-29T01:20:40.044Z,1.20
2023-01-29T01:23:09.460Z,1.65
2023-01-29T01:25:39.416Z,1.98
2023-01-29T01:28:12.380Z,1.50
2023-01-29T01:30:42.188Z,1.63
2023-01-29T01:33:11.694Z,1.77
2023-01-29T01:35:41.071Z,1.40
2023-01-29T01:38:11.435Z,1.90
2023-01-29T01:40:45.809Z,1.70
2023-01-29T01:43:15.056Z,1.52
2023-01-29T01:45:46.704Z,1.63
2023-01-29T01:48:26.669Z,1.33
2023-01-29T01:51:03.559Z,1.42
2023-01-29T01:53:40.585Z,1.20
2023-01-29T01:56:18.151Z,1.38
2023-01-29T01:58:56.663Z,1.58
2023-01-29T02:01:30.519Z,1.85
2023-01-29T02:04:27.856Z,1.50
2023-01-29T02:07:19.960Z,1.47
2023-01-29T02:09:53.711Z,1.40
2023-01-29T02:12:24.885Z,1.33
2023-01-29T02:14:54.334Z,1.35
2023-01-29T02:17:24.062Z,1.30
2023-01-29T02:20:15.970Z,1.55
2023-01-29T02:23:03.902Z,1.38
2023-01-29T02:26:12.626Z,1.42
2023-01-29T02:31:43.223Z,1.58
2023-01-29T02:34:28.685Z,1.40
2023-01-29T02:37:13.648Z,1.33
2023-01-29T02:40:02.097Z,1.38
2023-01-29T02:42:44.538Z,1.15
2023-01-29T02:45:27.120Z,1.23
2023-01-29T02:48:00.374Z,1.25
2023-01-29T02:50:49.262Z,1.40
2023-01-29T02:53:25.390Z,1.27
2023-01-29T02:56:15.925Z,1.48
2023-01-29T02:59:00.156Z,1.38
2023-01-29T03:02:13.832Z,1.15
2023-01-29T03:04:53.241Z,1.02
2023-01-29T03:07:44.071Z,1.33
2023-01-29T03:10:43.126Z,1.08
2023-01-29T03:13:41.034Z,1.20
2023-01-29T03:16:37.658Z,1.40
2023-01-29T03:19:39.509Z,0.95
2023-01-29T03:22:17.410Z,1.33
2023-01-29T03:25:16.477Z,1.50
2023-01-29T03:28:13.692Z,1.30
2023-01-29T03:31:14.743Z,1.40
2023-01-29T03:34:24.708Z,1.60
2023-01-29T03:37:03.782Z,1.25
2023-01-29T03:39:34.349Z,1.40
2023-01-29T03:42:34.542Z,1.70
2023-01-29T03:45:25.371Z,1.67
2023-01-29T03:48:12.226Z,1.23
2023-01-29T03:51:06.287Z,1.42
2023-01-29T03:54:22.025Z,1.30
2023-01-29T03:57:33.547Z,1.13
2023-01-29T04:00:27.170Z,1.60
2023-01-29T04:03:30.329Z,1.42
2023-01-29T04:06:18.744Z,1.25
2023-01-29T04:09:05.779Z,1.25
2023-01-29T04:11:44.690Z,1.30
2023-01-29T04:14:14.722Z,1.08
2023-01-29T04:16:51.832Z,1.08
2023-01-29T04:19:33.745Z,1.48
2023-01-29T04:22:19.374Z,1.35
2023-01-29T04:24:51.225Z,1.63
2023-01-29T04:27:40.945Z,1.35
2023-01-29T04:30:35.479Z,1.25
2023-01-29T04:33:26.061Z,1.60
2023-01-29T04:36:16.804Z,1.38
2023-01-29T04:38:58.061Z,1.33
2023-01-29T04:41:55.470Z,1.38
2023-01-29T04:44:59.661Z,1.77
2023-01-29T04:47:40.828Z,1.58
2023-01-29T04:50:40.198Z,1.92
2023-01-29T04:53:42.692Z,1.27
2023-01-29T04:56:49.262Z,2.05
2023-01-29T04:59:30.377Z,1.48
2023-01-29T05:02:02.663Z,1.73
2023-01-29T05:04:35.601Z,1.55
2023-01-29T05:07:11.291Z,1.77
2023-01-29T05:09:45.452Z,1.92
2023-01-29T05:12:18.495Z,1.23
2023-01-29T05:14:49.344Z,1.90
2023-01-29T05:17:20.808Z,1.58
2023-01-29T05:19:50.369Z,1.83
2023-01-29T05:22:22.782Z,1.77
2023-01-29T05:24:52.125Z,1.60
2023-01-29T05:27:49.859Z,1.63
2023-01-29T05:30:19.489Z,2.03
2023-01-29T05:32:49.128Z,1.45
2023-01-29T05:35:18.344Z,1.90
2023-01-29T05:37:47.599Z,1.42
2023-01-29T05:40:17.262Z,1.75
2023-01-29T05:42:46.646Z,1.75
2023-01-29T05:45:16.032Z,1.85
2023-01-29T05:47:46.772Z,1.63
2023-01-29T05:50:16.893Z,1.85
2023-01-29T05:52:46.296Z,1.60
2023-01-29T05:55:15.679Z,1.63
2023-01-29T05:57:44.904Z,1.35
2023-01-29T06:00:15.160Z,1.85
2023-01-29T06:02:45.167Z,1.08
2023-01-29T06:05:14.492Z,1.30
2023-01-29T06:07:45.534Z,1.40
2023-01-29T06:10:17.873Z,1.90
2023-01-29T06:12:47.669Z,1.60
2023-01-29T06:15:17.009Z,1.23
2023-01-29T06:17:46.254Z,1.40
2023-01-29T06:20:15.975Z,1.58
2023-01-29T06:22:45.509Z,1.08
2023-01-29T06:25:14.854Z,1.50
2023-01-29T06:27:44.100Z,1.52
2023-01-29T06:30:14.325Z,1.20
2023-01-29T06:32:43.707Z,1.67
2023-01-29T06:35:12.920Z,1.00
2023-01-29T06:37:42.182Z,1.88
2023-01-29T06:40:12.181Z,0.95
2023-01-29T06:42:42.818Z,1.23
2023-01-29T06:45:12.959Z,1.45
2023-01-29T06:47:42.323Z,1.42
2023-01-29T06:50:12.319Z,1.45
2023-01-29T06:52:41.504Z,1.10
2023-01-29T06:55:10.829Z,1.20
2023-01-29T06:57:40.136Z,1.27
2023-01-29T07:00:10.627Z,1.10
2023-01-29T07:02:39.876Z,1.08
2023-01-29T07:05:09.365Z,1.10
2023-01-29T07:07:38.561Z,0.90
2023-01-29T07:10:08.958Z,1.48
2023-01-29T07:12:38.163Z,1.40
2023-01-29T07:15:08.441Z,1.20
2023-01-29T07:17:37.655Z,1.23
2023-01-29T07:20:08.240Z,1.42
2023-01-29T07:22:37.636Z,1.30
2023-01-29T07:25:08.066Z,1.42
2023-01-29T07:27:37.305Z,1.48
2023-01-29T07:30:07.813Z,1.42
2023-01-29T07:32:37.077Z,1.20
2023-01-29T07:35:06.821Z,1.17
2023-01-29T07:37:36.155Z,1.27
2023-01-29T07:40:11.252Z,0.98
2023-01-29T07:42:42.266Z,1.05
2023-01-29T07:45:12.368Z,1.50
2023-01-29T07:47:41.634Z,1.05
2023-01-29T07:50:11.492Z,1.13
2023-01-29T07:52:40.711Z,1.50
2023-01-29T07:55:10.186Z,1.20
2023-01-29T07:57:39.749Z,1.38
2023-01-29T08:00:10.405Z,1.52
2023-01-29T08:02:42.636Z,1.35
2023-01-29T08:05:11.885Z,1.00
2023-01-29T08:07:41.070Z,1.20
2023-01-29T08:10:11.765Z,1.40
2023-01-29T08:12:42.033Z,1.30
2023-01-29T08:15:11.778Z,1.40
2023-01-29T08:17:56.136Z,1.52
2023-01-29T08:20:26.460Z,1.10
2023-01-29T08:23:06.024Z,1.10
2023-01-29T08:25:36.637Z,1.30
2023-01-29T08:28:05.995Z,1.10
2023-01-29T08:30:35.909Z,1.35
2023-01-29T08:33:05.257Z,1.48
2023-01-29T08:35:34.542Z,1.30
2023-01-29T08:38:05.385Z,1.05
2023-01-29T08:40:35.704Z,0.95
2023-01-29T08:43:09.479Z,1.30
2023-01-29T08:45:43.678Z,1.15
2023-01-29T08:48:12.955Z,1.10
2023-01-29T08:50:42.341Z,0.73
2023-01-29T08:53:11.580Z,0.82
2023-01-29T08:55:41.659Z,1.10
2023-01-29T08:58:12.404Z,1.10
2023-01-29T09:00:41.686Z,1.10
2023-01-29T09:03:11.235Z,1.10
2023-01-29T09:05:41.687Z,0.98
2023-01-29T09:08:11.024Z,1.20
2023-01-29T09:10:40.272Z,0.98
2023-01-29T09:13:09.509Z,1.10
2023-01-29T09:15:38.738Z,1.00
2023-01-29T09:18:08.021Z,1.20
2023-01-29T09:20:38.255Z,0.80
2023-01-29T09:23:10.387Z,1.02
2023-01-29T09:25:39.747Z,0.90
2023-01-29T09:28:08.933Z,1.02
2023-01-29T09:30:38.410Z,0.73
2023-01-29T09:33:08.371Z,1.13
2023-01-29T09:35:40.137Z,1.10
2023-01-29T09:38:10.751Z,0.93
2023-01-29T09:41:05.941Z,0.90
2023-01-29T09:44:00.511Z,1.00
2023-01-29T09:46:51.509Z,0.90
2023-01-29T09:49:31.631Z,1.00
2023-01-29T09:52:27.960Z,0.70
2023-01-29T09:55:18.393Z,0.85
2023-01-29T09:57:59.701Z,0.82
2023-01-29T10:00:54.477Z,0.82
2023-01-29T10:04:07.353Z,0.90
2023-01-29T10:07:16.289Z,0.80
2023-01-29T10:10:35.380Z,0.70
2023-01-29T10:13:37.362Z,1.10
2023-01-29T10:16:25.013Z,0.70
2023-01-29T10:19:03.041Z,1.10
2023-01-29T10:21:44.511Z,0.98
2023-01-29T10:24:35.771Z,1.00
2023-01-29T10:27:15.994Z,1.00
2023-01-29T10:29:51.303Z,1.00
2023-01-29T10:32:25.623Z,0.88
2023-01-29T10:35:20.829Z,1.02
2023-01-29T10:37:54.296Z,1.20
2023-01-29T10:40:27.664Z,1.10
2023-01-29T10:43:16.433Z,1.13
2023-01-29T10:46:10.313Z,1.10
2023-01-29T10:48:57.972Z,1.10
2023-01-29T10:54:52.862Z,0.80
2023-01-29T10:57:40.535Z,1.00
2023-01-29T11:02:58.224Z,1.20
2023-01-29T11:05:41.100Z,1.08
2023-01-29T11:08:18.095Z,1.00
2023-01-29T11:11:31.623Z,1.08
2023-01-29T11:14:09.005Z,1.00
2023-01-29T11:16:48.053Z,1.00
2023-01-29T11:19:17.812Z,1.00
2023-01-29T11:21:59.565Z,1.10
2023-01-29T11:24:29.154Z,1.10
2023-01-29T11:27:00.184Z,1.20
2023-01-29T11:29:48.156Z,1.00
2023-01-29T11:32:34.113Z,1.02
2023-01-29T11:35:12.228Z,0.80
2023-01-29T11:37:45.389Z,1.10
2023-01-29T11:40:23.014Z,1.10
2023-01-29T11:42:53.822Z,1.00
2023-01-29T11:45:34.812Z,1.20
2023-01-29T11:48:04.401Z,0.77
2023-01-29T11:50:34.452Z,1.10
2023-01-29T11:53:06.911Z,1.08
2023-01-29T11:55:49.866Z,1.10
2023-01-29T11:58:35.537Z,0.93
2023-01-29T12:01:05.860Z,0.80
2023-01-29T12:03:43.842Z,1.00
2023-01-29T12:06:23.139Z,1.00
2023-01-29T12:09:02.766Z,0.93
2023-01-29T12:11:34.534Z,0.90
2023-01-29T12:14:26.475Z,0.75
2023-01-29T12:17:04.571Z,1.10
2023-01-29T12:19:47.962Z,1.00
2023-01-29T12:23:11.344Z,0.98
2023-01-29T12:25:56.559Z,1.02
2023-01-29T12:28:54.045Z,1.25
2023-01-29T12:32:09.527Z,1.05
2023-01-29T12:35:03.674Z,0.93
2023-01-29T12:37:44.983Z,1.00
2023-01-29T12:40:19.427Z,0.90
2023-01-29T12:42:55.669Z,0.82
2023-01-29T12:45:29.349Z,0.95
2023-01-29T12:48:08.383Z,1.02
2023-01-29T12:50:39.485Z,0.90
2023-01-29T12:53:24.037Z,0.90
2023-01-29T12:56:19.382Z,1.10
2023-01-29T12:58:54.032Z,1.00
2023-01-29T13:01:40.950Z,1.00
2023-01-29T13:04:45.590Z,0.80
2023-01-29T13:07:21.276Z,1.00
2023-01-29T13:09:57.315Z,0.98
2023-01-29T13:12:27.906Z,1.00
2023-01-29T13:15:24.657Z,1.00
2023-01-29T13:18:10.551Z,1.27
2023-01-29T13:20:41.001Z,0.88
2023-01-29T13:23:30.805Z,0.93
2023-01-29T13:26:00.495Z,0.82
2023-01-29T13:28:30.651Z,1.00
2023-01-29T13:31:27.247Z,0.98
2023-01-29T13:34:19.801Z,0.98
2023-01-29T13:37:28.347Z,0.95
2023-01-29T13:40:00.712Z,0.95
2023-01-29T13:42:58.945Z,0.95
2023-01-29T13:45:44.229Z,0.90
2023-01-29T13:48:28.664Z,0.70
2023-01-29T13:51:02.435Z,0.90
2023-01-29T13:53:40.787Z,0.90
2023-01-29T13:56:33.948Z,1.10
2023-01-29T13:59:23.007Z,1.10
2023-01-29T14:01:52.180Z,1.00
2023-01-29T14:04:29.168Z,0.70
2023-01-29T14:07:00.132Z,0.82
2023-01-29T14:09:38.469Z,1.10
2023-01-29T14:12:22.933Z,0.90
2023-01-29T14:15:19.001Z,1.17
2023-01-29T14:18:15.204Z,0.90
2023-01-29T14:20:47.392Z,0.80
2023-01-29T14:23:48.155Z,0.90
2023-01-29T14:26:26.292Z,0.77
2023-01-29T14:29:21.524Z,1.10
2023-01-29T14:32:15.313Z,1.00
2023-01-29T14:35:03.580Z,1.00
2023-01-29T14:37:41.675Z,0.73
2023-01-29T14:40:21.921Z,1.08
2023-01-29T14:43:06.136Z,0.80
2023-01-29T14:45:37.873Z,0.85
2023-01-29T14:48:19.544Z,0.75
2023-01-29T14:50:51.180Z,0.80
2023-01-29T14:53:41.161Z,1.08
2023-01-29T14:56:21.893Z,1.10
2023-01-29T14:59:04.167Z,1.10
2023-01-29T15:01:39.202Z,0.90
2023-01-29T15:04:22.541Z,0.80
2023-01-29T15:07:04.767Z,0.90
2023-01-29T15:09:48.701Z,0.95
2023-01-29T15:13:00.465Z,1.00
2023-01-29T15:15:37.903Z,0.80
2023-01-29T15:18:34.728Z,0.98
2023-01-29T15:21:14.698Z,1.00
2023-01-29T15:23:45.925Z,0.90
2023-01-29T15:26:24.753Z,1.10
2023-01-29T15:29:03.861Z,1.05
2023-01-29T15:31:35.622Z,0.98
2023-01-29T15:34:07.779Z,1.02
2023-01-29T15:36:37.533Z,1.10
2023-01-29T15:39:12.533Z,1.00
2023-01-29T15:41:45.581Z,0.88
2023-01-29T15:44:21.834Z,1.20
2023-01-29T15:47:01.619Z,1.13
2023-01-29T15:49:39.331Z,1.15
2023-01-29T15:52:20.430Z,1.10
2023-01-29T15:54:51.442Z,1.10
2023-01-29T15:57:37.360Z,1.10
2023-01-29T16:00:19.621Z,1.17
2023-01-29T16:02:49.065Z,1.30
2023-01-29T16:05:29.482Z,0.90
2023-01-29T16:08:00.849Z,1.40
2023-01-29T16:10:33.674Z,0.80
2023-01-29T16:13:03.951Z,0.95
2023-01-29T16:15:36.066Z,1.35
2023-01-29T16:18:28.440Z,1.40
2023-01-29T16:21:06.518Z,1.23
2023-01-29T16:23:44.086Z,0.98
2023-01-29T16:26:24.616Z,1.33
2023-01-29T16:28:55.582Z,0.80
2023-01-29T16:31:29.285Z,0.90
2023-01-29T16:34:06.122Z,1.20
2023-01-29T16:36:35.940Z,1.00
2023-01-29T16:39:17.779Z,1.00
2023-01-29T16:42:13.061Z,1.00
2023-01-29T16:44:52.965Z,1.08
2023-01-29T16:47:41.176Z,1.23
2023-01-29T16:50:40.650Z,1.33
2023-01-29T16:53:23.380Z,0.90
2023-01-29T16:55:53.171Z,1.27
2023-01-29T16:58:28.512Z,1.23
2023-01-29T17:01:18.974Z,1.20
2023-01-29T17:04:00.690Z,1.33
2023-01-29T17:06:32.772Z,1.15
2023-01-29T17:09:04.102Z,1.15
2023-01-29T17:11:42.462Z,0.95
2023-01-29T17:14:19.998Z,1.05
2023-01-29T17:17:04.307Z,1.02
2023-01-29T17:19:34.018Z,1.27
2023-01-29T17:22:07.718Z,1.13
2023-01-29T17:24:36.936Z,1.48
2023-01-29T17:27:06.145Z,0.98
2023-01-29T17:29:35.431Z,1.30
2023-01-29T17:32:05.114Z,0.88
2023-01-29T17:34:34.369Z,1.02
2023-01-29T17:37:03.636Z,1.08
2023-01-29T17:39:32.891Z,1.15
2023-01-29T17:42:02.129Z,1.20
2023-01-29T17:44:31.435Z,1.20
2023-01-29T17:47:00.878Z,1.08
2023-01-29T17:49:34.165Z,1.42
2023-01-29T17:52:03.626Z,1.02
2023-01-29T17:54:32.907Z,1.23
2023-01-29T17:57:02.485Z,1.25
2023-01-29T17:59:34.852Z,1.05
2023-01-29T18:02:04.171Z,0.90
2023-01-29T18:04:33.483Z,1.30
2023-01-29T18:07:02.815Z,1.15
2023-01-29T18:09:32.085Z,1.10
2023-01-29T18:12:01.317Z,1.08
2023-01-29T18:14:30.615Z,1.13
2023-01-29T18:16:59.840Z,1.00
2023-01-29T18:19:31.161Z,1.50
2023-01-29T18:22:00.404Z,1.02
2023-01-29T18:24:30.064Z,0.98
2023-01-29T18:26:59.300Z,1.13
2023-01-29T18:29:30.326Z,1.35
2023-01-29T18:31:59.612Z,1.35
2023-01-29T18:34:28.889Z,1.13
2023-01-29T18:36:59.445Z,1.30
2023-01-29T18:39:28.702Z,1.80
2023-01-29T18:41:57.885Z,1.42
2023-01-29T18:44:29.814Z,1.30
2023-01-29T18:46:59.402Z,1.50
2023-01-29T18:49:28.611Z,1.65
2023-01-29T18:51:57.931Z,1.10
2023-01-29T18:54:27.235Z,1.25
2023-01-29T18:57:06.234Z,1.40
2023-01-29T18:59:44.333Z,1.43
2023-01-29T19:02:17.104Z,1.63
2023-01-29T19:04:47.006Z,1.42
2023-01-29T19:07:16.408Z,1.27
2023-01-29T19:09:46.975Z,1.38
2023-01-29T19:12:17.039Z,1.27
2023-01-29T19:14:46.310Z,1.33
2023-01-29T19:17:15.612Z,1.20
2023-01-29T19:19:45.003Z,1.05
2023-01-29T19:22:14.730Z,1.13
2023-01-29T19:24:43.970Z,1.23
2023-01-29T19:27:13.267Z,1.23
2023-01-29T19:29:42.589Z,1.30
2023-01-29T19:32:11.855Z,1.10
2023-01-29T19:34:41.140Z,1.08
2023-01-29T19:37:10.500Z,1.00
2023-01-29T19:39:39.728Z,1.55
2023-01-29T19:42:09.076Z,1.23
2023-01-29T19:44:39.861Z,1.40
2023-01-29T19:47:09.190Z,1.20
2023-01-29T19:49:39.401Z,1.25
2023-01-29T19:52:31.788Z,1.00
2023-01-29T19:55:06.959Z,1.30
2023-01-29T19:57:36.233Z,1.23
2023-01-29T20:00:06.875Z,1.67
2023-01-29T20:02:36.111Z,1.13
2023-01-29T20:05:07.169Z,0.95
2023-01-29T20:07:36.616Z,1.35
2023-01-29T20:10:09.843Z,1.40
2023-01-29T20:12:39.117Z,1.40
2023-01-29T20:15:08.905Z,1.63
2023-01-29T20:17:38.396Z,1.15
2023-01-29T20:20:08.980Z,1.58
2023-01-29T20:22:38.332Z,1.63
2023-01-29T20:25:08.001Z,1.77
2023-01-29T20:27:37.186Z,1.40
2023-01-29T20:30:08.242Z,1.33
2023-01-29T20:32:37.508Z,1.10
2023-01-29T20:35:07.713Z,1.60
2023-01-29T20:37:37.004Z,1.20
2023-01-29T20:40:06.926Z,1.50
2023-01-29T20:42:36.214Z,1.50
2023-01-29T20:45:06.358Z,1.42
2023-01-29T20:47:35.770Z,1.33
2023-01-29T20:50:08.637Z,1.30
2023-01-29T20:52:40.387Z,1.52
2023-01-29T20:55:12.833Z,1.27
2023-01-29T20:57:42.364Z,1.55
2023-01-29T21:00:15.072Z,1.55
2023-01-29T21:02:45.918Z,1.83
2023-01-29T21:05:15.491Z,1.38
2023-01-29T21:07:44.722Z,1.23
2023-01-29T21:10:15.018Z,1.30
2023-01-29T21:12:44.617Z,1.38
2023-01-29T21:15:13.943Z,1.42
2023-01-29T21:17:43.207Z,1.50
2023-01-29T21:20:13.003Z,1.42
2023-01-29T21:22:43.954Z,1.30
2023-01-29T21:25:14.142Z,1.50
2023-01-29T21:27:43.416Z,1.58
2023-01-29T21:30:12.998Z,1.63
2023-01-29T21:32:42.279Z,1.55
2023-01-29T21:35:11.591Z,1.33
2023-01-29T21:37:41.735Z,1.40
2023-01-29T21:40:11.765Z,1.58
2023-01-29T21:43:00.624Z,1.65
2023-01-29T21:45:29.853Z,1.42
2023-01-29T21:47:59.074Z,1.90
2023-01-29T21:50:28.390Z,1.63
2023-01-29T21:52:57.855Z,1.42
2023-01-29T21:55:27.458Z,1.30
2023-01-29T21:57:56.778Z,1.48
2023-01-29T22:00:26.109Z,1.92
2023-01-29T22:02:55.603Z,1.65
2023-01-29T22:05:25.011Z,1.40
2023-01-29T22:07:54.239Z,1.65
2023-01-29T22:10:23.743Z,1.58
2023-01-29T22:12:52.996Z,1.80
2023-01-29T22:15:23.889Z,1.55
2023-01-29T22:17:53.576Z,1.55
2023-01-29T22:20:30.134Z,1.77
2023-01-29T22:23:00.628Z,1.77
2023-01-29T22:25:30.040Z,1.33
2023-01-29T22:27:59.334Z,1.45
2023-01-29T22:30:28.599Z,1.58
2023-01-29T22:32:57.896Z,1.48
2023-01-29T22:35:27.183Z,1.60
2023-01-29T22:37:56.427Z,1.58
2023-01-29T22:40:26.402Z,1.40
2023-01-29T22:42:55.729Z,1.80
2023-01-29T22:45:25.003Z,1.50
2023-01-29T22:47:54.307Z,1.83
2023-01-29T22:50:23.537Z,1.52
2023-01-29T22:52:54.178Z,1.92
2023-01-29T22:55:23.610Z,2.10
2023-01-29T22:57:53.515Z,1.80
2023-01-29T23:00:23.113Z,1.50
2023-01-29T23:02:52.404Z,1.48
2023-01-29T23:05:21.633Z,1.20
2023-01-29T23:07:50.876Z,1.40
2023-01-29T23:10:20.286Z,1.70
2023-01-29T23:12:49.595Z,1.52
2023-01-29T23:15:18.835Z,1.65
2023-01-29T23:17:48.564Z,1.48
2023-01-29T23:20:20.685Z,1.52
2023-01-29T23:22:51.033Z,1.60
2023-01-29T23:25:20.262Z,2.35
2023-01-29T23:27:49.473Z,2.05
2023-01-29T23:30:19.041Z,1.70
2023-01-29T23:32:48.669Z,1.70
2023-01-29T23:35:17.890Z,1.80
2023-01-29T23:37:47.161Z,1.67
2023-01-29T23:40:17.092Z,1.60
2023-01-29T23:42:48.827Z,2.10
2023-01-29T23:45:18.801Z,2.00
2023-01-29T23:47:48.036Z,1.80
2023-01-29T23:50:17.824Z,1.80
2023-01-29T23:52:47.177Z,2.05
2023-01-29T23:55:16.548Z,1.70
2023-01-29T23:57:45.775Z,1.98
